sensor_id;sensor_type;location;lat;lon;timestamp;pressure;altitude;pressure_sealevel;temperature;humidity
10097;BME280;5087;42.662;23.466;2023-12-29T00:01:29;96134.09;;;-2.18;100.00
10097;BME280;5087;42.662;23.466;2023-12-29T00:03:58;96138.06;;;-2.60;100.00
10097;BME280;5087;42.662;23.466;2023-12-29T00:06:25;96120.97;;;-2.77;100.00
10097;BME280;5087;42.662;23.466;2023-12-29T00:08:52;96123.88;;;-2.79;100.00
10097;BME280;5087;42.662;23.466;2023-12-29T00:11:20;96138.06;;;-2.60;100.00
10097;BME280;5087;42.662;23.466;2023-12-29T00:13:47;96123.31;;;-2.56;100.00
10097;BME280;5087;42.662;23.466;2023-12-29T00:16:14;96119.63;;;-2.55;100.00
10097;BME280;5087;42.662;23.466;2023-12-29T00:18:41;96130.22;;;-2.23;100.00
10097;BME280;5087;42.662;23.466;2023-12-29T00:21:10;96145.94;;;-2.14;100.00
10097;BME280;5087;42.662;23.466;2023-12-29T00:23:37;96137.94;;;-2.40;100.00
10097;BME280;5087;42.662;23.466;2023-12-29T00:26:04;96134.63;;;-2.35;100.00
10097;BME280;5087;42.662;23.466;2023-12-29T00:28:31;96134.94;;;-2.25;100.00
10097;BME280;5087;42.662;23.466;2023-12-29T00:30:58;96132.88;;;-2.23;100.00
10097;BME280;5087;42.662;23.466;2023-12-29T00:33:26;96138.09;;;-2.09;100.00
10097;BME280;5087;42.662;23.466;2023-12-29T00:35:53;96137.28;;;-2.10;100.00
10097;BME280;5087;42.662;23.466;2023-12-29T00:38:22;96143.22;;;-2.08;100.00
10097;BME280;5087;42.662;23.466;2023-12-29T00:40:50;96131.13;;;-2.10;100.00
10097;BME280;5087;42.662;23.466;2023-12-29T00:43:17;96133.66;;;-2.15;100.00
10097;BME280;5087;42.662;23.466;2023-12-29T00:45:44;96134.88;;;-2.11;100.00
10097;BME280;5087;42.662;23.466;2023-12-29T00:48:11;96124.09;;;-1.98;100.00
10097;BME280;5087;42.662;23.466;2023-12-29T00:50:38;96122.34;;;-2.11;100.00
10097;BME280;5087;42.662;23.466;2023-12-29T00:53:05;96127.63;;;-2.04;100.00
10097;BME280;5087;42.662;23.466;2023-12-29T00:55:40;96120.88;;;-2.07;100.00
10097;BME280;5087;42.662;23.466;2023-12-29T00:58:10;96124.47;;;-1.94;100.00
10097;BME280;5087;42.662;23.466;2023-12-29T01:00:37;96119.69;;;-1.85;100.00
10097;BME280;5087;42.662;23.466;2023-12-29T01:03:04;96113.59;;;-1.93;100.00
10097;BME280;5087;42.662;23.466;2023-12-29T01:05:31;96113.56;;;-2.11;100.00
10097;BME280;5087;42.662;23.466;2023-12-29T01:08:02;96112.88;;;-2.25;100.00
10097;BME280;5087;42.662;23.466;2023-12-29T01:10:29;96109.56;;;-2.20;100.00
10097;BME280;5087;42.662;23.466;2023-12-29T01:12:58;96124.03;;;-2.16;100.00
10097;BME280;5087;42.662;23.466;2023-12-29T01:15:25;96121.38;;;-2.16;100.00
10097;BME280;5087;42.662;23.466;2023-12-29T01:17:52;96113.41;;;-2.16;100.00
10097;BME280;5087;42.662;23.466;2023-12-29T01:20:20;96125.41;;;-2.07;100.00
10097;BME280;5087;42.662;23.466;2023-12-29T01:22:49;96110.53;;;-2.15;100.00
10097;BME280;5087;42.662;23.466;2023-12-29T01:25:16;96111.06;;;-2.06;100.00
10097;BME280;5087;42.662;23.466;2023-12-29T01:27:43;96109.31;;;-1.94;100.00
10097;BME280;5087;42.662;23.466;2023-12-29T01:30:13;96107.84;;;-1.89;100.00
10097;BME280;5087;42.662;23.466;2023-12-29T01:32:40;96111.91;;;-1.87;100.00
10097;BME280;5087;42.662;23.466;2023-12-29T01:35:08;96115.84;;;-1.89;100.00
10097;BME280;5087;42.662;23.466;2023-12-29T01:37:35;96103.19;;;-1.94;100.00
10097;BME280;5087;42.662;23.466;2023-12-29T01:40:04;96107.91;;;-1.96;100.00
10097;BME280;5087;42.662;23.466;2023-12-29T01:42:32;96110.78;;;-1.98;100.00
10097;BME280;5087;42.662;23.466;2023-12-29T01:45:00;96114.72;;;-2.00;100.00
10097;BME280;5087;42.662;23.466;2023-12-29T01:47:28;96118.78;;;-1.98;100.00
10097;BME280;5087;42.662;23.466;2023-12-29T01:49:55;96112.59;;;-2.17;100.00
10097;BME280;5087;42.662;23.466;2023-12-29T01:52:23;96118.19;;;-2.25;100.00
10097;BME280;5087;42.662;23.466;2023-12-29T01:54:50;96118.97;;;-2.25;100.00
10097;BME280;5087;42.662;23.466;2023-12-29T01:57:22;96118.44;;;-2.33;100.00
10097;BME280;5087;42.662;23.466;2023-12-29T01:59:49;96108.13;;;-2.48;100.00
10097;BME280;5087;42.662;23.466;2023-12-29T02:02:17;96102.88;;;-2.55;100.00
10097;BME280;5087;42.662;23.466;2023-12-29T02:04:46;96106.94;;;-2.52;100.00
10097;BME280;5087;42.662;23.466;2023-12-29T02:07:13;96119.97;;;-2.44;100.00
10097;BME280;5087;42.662;23.466;2023-12-29T02:09:40;96119.81;;;-2.24;100.00
10097;BME280;5087;42.662;23.466;2023-12-29T02:12:08;96110.31;;;-2.13;100.00
10097;BME280;5087;42.662;23.466;2023-12-29T02:14:35;96102.91;;;-2.36;100.00
10097;BME280;5087;42.662;23.466;2023-12-29T02:17:07;96076.94;;;-2.34;100.00
10097;BME280;5087;42.662;23.466;2023-12-29T02:19:40;96110.25;;;-2.07;100.00
10097;BME280;5087;42.662;23.466;2023-12-29T02:22:09;96088.41;;;-2.34;100.00
10097;BME280;5087;42.662;23.466;2023-12-29T02:24:38;96086.66;;;-2.21;100.00
10097;BME280;5087;42.662;23.466;2023-12-29T02:27:21;96092.13;;;-2.16;100.00
10097;BME280;5087;42.662;23.466;2023-12-29T02:29:58;96078.19;;;-2.37;100.00
10097;BME280;5087;42.662;23.466;2023-12-29T02:32:36;96083.16;;;-2.47;100.00
10097;BME280;5087;42.662;23.466;2023-12-29T02:35:06;96077.66;;;-2.46;100.00
10097;BME280;5087;42.662;23.466;2023-12-29T02:37:36;96072.53;;;-2.47;100.00
10097;BME280;5087;42.662;23.466;2023-12-29T02:40:04;96074.13;;;-2.40;100.00
10097;BME280;5087;42.662;23.466;2023-12-29T02:42:33;96075.53;;;-2.37;100.00
10097;BME280;5087;42.662;23.466;2023-12-29T02:45:00;96063.09;;;-2.43;100.00
10097;BME280;5087;42.662;23.466;2023-12-29T02:47:28;96049.31;;;-2.59;100.00
10097;BME280;5087;42.662;23.466;2023-12-29T02:49:55;96063.78;;;-2.55;100.00
10097;BME280;5087;42.662;23.466;2023-12-29T02:52:22;96071.00;;;-2.62;100.00
10097;BME280;5087;42.662;23.466;2023-12-29T02:54:50;96052.25;;;-2.67;100.00
10097;BME280;5087;42.662;23.466;2023-12-29T02:57:17;96051.59;;;-2.62;100.00
10097;BME280;5087;42.662;23.466;2023-12-29T02:59:45;96047.91;;;-2.61;100.00
10097;BME280;5087;42.662;23.466;2023-12-29T03:02:12;96041.16;;;-2.64;100.00
10097;BME280;5087;42.662;23.466;2023-12-29T03:04:40;96046.91;;;-2.67;100.00
10097;BME280;5087;42.662;23.466;2023-12-29T03:07:10;96027.38;;;-2.79;100.00
10097;BME280;5087;42.662;23.466;2023-12-29T03:09:39;96038.81;;;-2.79;100.00
10097;BME280;5087;42.662;23.466;2023-12-29T03:12:10;96041.03;;;-2.76;100.00
10097;BME280;5087;42.662;23.466;2023-12-29T03:14:37;96035.63;;;-2.88;100.00
10097;BME280;5087;42.662;23.466;2023-12-29T03:17:06;96017.78;;;-3.12;100.00
10097;BME280;5087;42.662;23.466;2023-12-29T03:19:33;96024.81;;;-3.25;100.00
10097;BME280;5087;42.662;23.466;2023-12-29T03:22:00;96028.91;;;-3.29;100.00
10097;BME280;5087;42.662;23.466;2023-12-29T03:24:28;96011.00;;;-3.40;100.00
10097;BME280;5087;42.662;23.466;2023-12-29T03:26:56;95984.13;;;-3.57;100.00
10097;BME280;5087;42.662;23.466;2023-12-29T03:29:23;96013.25;;;-3.37;100.00
10097;BME280;5087;42.662;23.466;2023-12-29T03:31:52;96005.69;;;-3.40;100.00
10097;BME280;5087;42.662;23.466;2023-12-29T03:34:24;96013.00;;;-3.29;100.00
10097;BME280;5087;42.662;23.466;2023-12-29T03:36:51;96011.00;;;-3.40;100.00
10097;BME280;5087;42.662;23.466;2023-12-29T03:39:18;96006.84;;;-3.29;100.00
10097;BME280;5087;42.662;23.466;2023-12-29T03:41:46;96027.19;;;-3.16;100.00
10097;BME280;5087;42.662;23.466;2023-12-29T03:44:13;96023.06;;;-3.06;100.00
10097;BME280;5087;42.662;23.466;2023-12-29T03:46:41;96012.75;;;-3.21;100.00
10097;BME280;5087;42.662;23.466;2023-12-29T03:49:08;96028.09;;;-2.97;100.00
10097;BME280;5087;42.662;23.466;2023-12-29T03:51:37;96025.56;;;-2.86;100.00
10097;BME280;5087;42.662;23.466;2023-12-29T03:54:04;96027.66;;;-2.88;100.00
10097;BME280;5087;42.662;23.466;2023-12-29T03:56:31;96030.81;;;-3.04;100.00
10097;BME280;5087;42.662;23.466;2023-12-29T03:58:58;96039.13;;;-2.94;100.00
10097;BME280;5087;42.662;23.466;2023-12-29T04:01:26;96051.06;;;-3.03;100.00
10097;BME280;5087;42.662;23.466;2023-12-29T04:03:53;96039.72;;;-2.92;100.00
10097;BME280;5087;42.662;23.466;2023-12-29T04:06:20;96041.59;;;-2.67;100.00
10097;BME280;5087;42.662;23.466;2023-12-29T04:08:49;96045.19;;;-2.55;100.00
10097;BME280;5087;42.662;23.466;2023-12-29T04:11:16;96038.94;;;-2.67;100.00
10097;BME280;5087;42.662;23.466;2023-12-29T04:13:43;96041.97;;;-2.89;100.00
10097;BME280;5087;42.662;23.466;2023-12-29T04:16:10;96038.19;;;-3.06;100.00
10097;BME280;5087;42.662;23.466;2023-12-29T04:18:44;96014.94;;;-3.18;100.00
10097;BME280;5087;42.662;23.466;2023-12-29T04:21:13;96038.34;;;-3.01;100.00
10097;BME280;5087;42.662;23.466;2023-12-29T04:23:44;95986.78;;;-3.51;100.00
10097;BME280;5087;42.662;23.466;2023-12-29T04:26:13;96054.25;;;-2.94;100.00
10097;BME280;5087;42.662;23.466;2023-12-29T04:28:43;96032.78;;;-2.93;100.00
10097;BME280;5087;42.662;23.466;2023-12-29T04:31:18;96032.75;;;-2.86;100.00
10097;BME280;5087;42.662;23.466;2023-12-29T04:33:46;96039.81;;;-2.73;100.00
10097;BME280;5087;42.662;23.466;2023-12-29T04:36:17;96034.16;;;-2.83;100.00
10097;BME280;5087;42.662;23.466;2023-12-29T04:38:48;96034.56;;;-2.87;100.00
10097;BME280;5087;42.662;23.466;2023-12-29T04:41:27;96036.47;;;-2.94;100.00
10097;BME280;5087;42.662;23.466;2023-12-29T04:43:58;96036.47;;;-2.94;100.00
10097;BME280;5087;42.662;23.466;2023-12-29T04:46:25;96054.03;;;-2.93;100.00
10097;BME280;5087;42.662;23.466;2023-12-29T04:48:52;96038.88;;;-2.86;100.00
10097;BME280;5087;42.662;23.466;2023-12-29T04:51:29;96012.75;;;-3.21;100.00
10097;BME280;5087;42.662;23.466;2023-12-29T04:53:56;96038.97;;;-2.99;100.00
10097;BME280;5087;42.662;23.466;2023-12-29T04:56:25;96048.81;;;-3.06;100.00
10097;BME280;5087;42.662;23.466;2023-12-29T04:58:52;96018.97;;;-3.08;100.00
10097;BME280;5087;42.662;23.466;2023-12-29T05:01:25;96027.41;;;-3.11;100.00
10097;BME280;5087;42.662;23.466;2023-12-29T05:03:57;96024.47;;;-3.35;100.00
10097;BME280;5087;42.662;23.466;2023-12-29T05:06:25;96033.88;;;-3.39;100.00
10097;BME280;5087;42.662;23.466;2023-12-29T05:08:55;96026.66;;;-3.64;100.00
10097;BME280;5087;42.662;23.466;2023-12-29T05:11:28;96027.84;;;-3.67;100.00
10097;BME280;5087;42.662;23.466;2023-12-29T05:13:56;96004.88;;;-3.86;100.00
10097;BME280;5087;42.662;23.466;2023-12-29T05:16:30;96008.72;;;-3.75;100.00
10097;BME280;5087;42.662;23.466;2023-12-29T05:19:04;96016.91;;;-3.77;100.00
10097;BME280;5087;42.662;23.466;2023-12-29T05:21:31;96009.69;;;-4.22;100.00
10097;BME280;5087;42.662;23.466;2023-12-29T05:24:03;96030.94;;;-4.49;100.00
10097;BME280;5087;42.662;23.466;2023-12-29T05:26:33;96036.22;;;-4.89;100.00
10097;BME280;5087;42.662;23.466;2023-12-29T05:29:00;96019.88;;;-5.33;100.00
10097;BME280;5087;42.662;23.466;2023-12-29T05:31:31;96032.72;;;-5.30;100.00
10097;BME280;5087;42.662;23.466;2023-12-29T05:34:02;96029.81;;;-5.42;100.00
10097;BME280;5087;42.662;23.466;2023-12-29T05:36:40;96040.19;;;-5.40;100.00
10097;BME280;5087;42.662;23.466;2023-12-29T05:39:08;96036.13;;;-5.43;100.00
10097;BME280;5087;42.662;23.466;2023-12-29T05:41:37;96044.44;;;-5.46;100.00
10097;BME280;5087;42.662;23.466;2023-12-29T05:44:11;96031.63;;;-5.49;100.00
10097;BME280;5087;42.662;23.466;2023-12-29T05:46:38;96016.50;;;-5.68;100.00
10097;BME280;5087;42.662;23.466;2023-12-29T05:49:06;96033.69;;;-5.37;100.00
10097;BME280;5087;42.662;23.466;2023-12-29T05:51:36;96015.16;;;-5.44;100.00
10097;BME280;5087;42.662;23.466;2023-12-29T05:54:06;96056.34;;;-5.15;100.00
10097;BME280;5087;42.662;23.466;2023-12-29T05:56:48;96037.81;;;-5.15;100.00
10097;BME280;5087;42.662;23.466;2023-12-29T05:59:15;96014.34;;;-5.45;100.00
10097;BME280;5087;42.662;23.466;2023-12-29T06:01:43;96029.81;;;-5.42;100.00
10097;BME280;5087;42.662;23.466;2023-12-29T06:04:10;96043.06;;;-5.42;100.00
10097;BME280;5087;42.662;23.466;2023-12-29T06:06:42;96036.78;;;-5.27;100.00
10097;BME280;5087;42.662;23.466;2023-12-29T06:09:12;96020.09;;;-5.21;100.00
10097;BME280;5087;42.662;23.466;2023-12-29T06:11:41;96041.50;;;-5.02;100.00
10097;BME280;5087;42.662;23.466;2023-12-29T06:14:13;96036.22;;;-4.96;100.00
10097;BME280;5087;42.662;23.466;2023-12-29T06:16:52;96027.25;;;-4.95;100.00
10097;BME280;5087;42.662;23.466;2023-12-29T06:19:21;96034.19;;;-4.87;100.00
10097;BME280;5087;42.662;23.466;2023-12-29T06:21:48;96009.31;;;-4.86;100.00
10097;BME280;5087;42.662;23.466;2023-12-29T06:24:16;96026.03;;;-4.72;100.00
10097;BME280;5087;42.662;23.466;2023-12-29T06:26:47;96014.00;;;-5.01;100.00
10097;BME280;5087;42.662;23.466;2023-12-29T06:29:23;96039.50;;;-4.87;100.00
10097;BME280;5087;42.662;23.466;2023-12-29T06:31:51;96038.88;;;-4.75;100.00
10097;BME280;5087;42.662;23.466;2023-12-29T06:34:18;96038.28;;;-4.64;100.00
10097;BME280;5087;42.662;23.466;2023-12-29T06:36:51;96026.84;;;-4.38;100.00
10097;BME280;5087;42.662;23.466;2023-12-29T06:39:21;96008.25;;;-4.24;100.00
10097;BME280;5087;42.662;23.466;2023-12-29T06:41:50;96032.06;;;-4.04;100.00
10097;BME280;5087;42.662;23.466;2023-12-29T06:44:25;96023.00;;;-3.76;100.00
10097;BME280;5087;42.662;23.466;2023-12-29T06:46:52;96024.03;;;-3.32;100.00
10097;BME280;5087;42.662;23.466;2023-12-29T06:49:34;96034.84;;;-2.95;100.00
10097;BME280;5087;42.662;23.466;2023-12-29T06:52:02;96027.66;;;-2.88;100.00
10097;BME280;5087;42.662;23.466;2023-12-29T06:54:28;96041.34;;;-2.91;100.00
10097;BME280;5087;42.662;23.466;2023-12-29T06:57:00;96033.63;;;-2.92;100.00
10097;BME280;5087;42.662;23.466;2023-12-29T06:59:48;96039.81;;;-3.05;100.00
10097;BME280;5087;42.662;23.466;2023-12-29T07:02:30;95994.63;;;-3.30;100.00
10097;BME280;5087;42.662;23.466;2023-12-29T07:04:59;96013.41;;;-3.00;100.00
10097;BME280;5087;42.662;23.466;2023-12-29T07:07:32;96021.22;;;-2.73;100.00
10097;BME280;5087;42.662;23.466;2023-12-29T07:10:08;96028.34;;;-2.74;100.00
10097;BME280;5087;42.662;23.466;2023-12-29T07:12:38;95986.00;;;-2.68;100.00
10097;BME280;5087;42.662;23.466;2023-12-29T07:15:09;95988.03;;;-2.45;100.00
10097;BME280;5087;42.662;23.466;2023-12-29T07:17:40;96006.78;;;-2.59;100.00
10097;BME280;5087;42.662;23.466;2023-12-29T07:20:08;96003.72;;;-2.37;100.00
10097;BME280;5087;42.662;23.466;2023-12-29T07:22:36;96016.16;;;-1.56;100.00
10097;BME280;5087;42.662;23.466;2023-12-29T07:25:05;95998.28;;;-2.05;100.00
10097;BME280;5087;42.662;23.466;2023-12-29T07:27:34;96007.50;;;-2.26;100.00
10097;BME280;5087;42.662;23.466;2023-12-29T07:30:03;96000.53;;;-2.46;100.00
10097;BME280;5087;42.662;23.466;2023-12-29T07:32:33;96039.38;;;-2.45;100.00
10097;BME280;5087;42.662;23.466;2023-12-29T07:35:00;96040.94;;;-2.37;100.00
10097;BME280;5087;42.662;23.466;2023-12-29T07:37:28;96034.75;;;-2.31;100.00
10097;BME280;5087;42.662;23.466;2023-12-29T07:39:55;96032.50;;;-2.52;100.00
10097;BME280;5087;42.662;23.466;2023-12-29T07:42:22;96034.00;;;-2.38;100.00
10097;BME280;5087;42.662;23.466;2023-12-29T07:44:49;96032.09;;;-2.31;100.00
10097;BME280;5087;42.662;23.466;2023-12-29T07:47:17;96027.50;;;-2.42;100.00
10097;BME280;5087;42.662;23.466;2023-12-29T07:49:50;96034.38;;;-2.34;100.00
10097;BME280;5087;42.662;23.466;2023-12-29T07:52:17;96023.69;;;-2.28;100.00
10097;BME280;5087;42.662;23.466;2023-12-29T07:54:44;96006.28;;;-2.05;100.00
10097;BME280;5087;42.662;23.466;2023-12-29T07:57:12;96024.16;;;-1.94;100.00
10097;BME280;5087;42.662;23.466;2023-12-29T07:59:39;96020.81;;;-1.52;100.00
10097;BME280;5087;42.662;23.466;2023-12-29T08:02:06;96018.00;;;-1.57;100.00
10097;BME280;5087;42.662;23.466;2023-12-29T08:04:33;96027.03;;;-1.58;100.00
10097;BME280;5087;42.662;23.466;2023-12-29T08:07:04;95996.38;;;-1.98;100.00
10097;BME280;5087;42.662;23.466;2023-12-29T08:09:33;96000.31;;;-2.26;100.00
10097;BME280;5087;42.662;23.466;2023-12-29T08:12:06;96032.28;;;-1.70;100.00
10097;BME280;5087;42.662;23.466;2023-12-29T08:17:37;96047.53;;;-1.58;100.00
10097;BME280;5087;42.662;23.466;2023-12-29T08:20:06;96012.75;;;-1.64;100.00
10097;BME280;5087;42.662;23.466;2023-12-29T08:22:35;95990.53;;;-1.39;100.00
10097;BME280;5087;42.662;23.466;2023-12-29T08:25:03;96013.56;;;-0.60;100.00
10097;BME280;5087;42.662;23.466;2023-12-29T08:27:30;96016.50;;;-0.26;100.00
10097;BME280;5087;42.662;23.466;2023-12-29T08:29:58;96013.72;;;-0.19;100.00
10097;BME280;5087;42.662;23.466;2023-12-29T08:32:25;96033.66;;;-0.22;100.00
10097;BME280;5087;42.662;23.466;2023-12-29T08:34:53;96030.88;;;0.09;100.00
10097;BME280;5087;42.662;23.466;2023-12-29T08:37:22;96027.19;;;0.10;100.00
10097;BME280;5087;42.662;23.466;2023-12-29T08:39:52;96020.56;;;0.65;100.00
10097;BME280;5087;42.662;23.466;2023-12-29T08:42:22;96016.41;;;0.86;100.00
10097;BME280;5087;42.662;23.466;2023-12-29T08:44:49;96020.41;;;1.01;100.00
10097;BME280;5087;42.662;23.466;2023-12-29T08:47:16;96019.72;;;1.22;100.00
10097;BME280;5087;42.662;23.466;2023-12-29T08:49:44;96020.47;;;1.86;100.00
10097;BME280;5087;42.662;23.466;2023-12-29T08:52:18;95992.59;;;2.04;100.00
10097;BME280;5087;42.662;23.466;2023-12-29T08:54:46;96018.94;;;2.51;100.00
10097;BME280;5087;42.662;23.466;2023-12-29T08:57:16;96022.03;;;2.88;100.00
10097;BME280;5087;42.662;23.466;2023-12-29T08:59:48;96004.06;;;2.88;100.00
10097;BME280;5087;42.662;23.466;2023-12-29T09:02:16;95978.63;;;2.91;100.00
10097;BME280;5087;42.662;23.466;2023-12-29T09:04:44;96027.94;;;3.12;100.00
10097;BME280;5087;42.662;23.466;2023-12-29T09:07:11;96016.38;;;3.11;100.00
10097;BME280;5087;42.662;23.466;2023-12-29T09:09:39;96013.47;;;3.78;100.00
10097;BME280;5087;42.662;23.466;2023-12-29T09:12:09;95988.72;;;3.76;100.00
10097;BME280;5087;42.662;23.466;2023-12-29T09:14:39;96005.44;;;3.45;100.00
10097;BME280;5087;42.662;23.466;2023-12-29T09:17:09;96000.94;;;3.56;100.00
10097;BME280;5087;42.662;23.466;2023-12-29T09:19:38;95994.59;;;3.35;100.00
10097;BME280;5087;42.662;23.466;2023-12-29T09:22:05;95999.84;;;3.52;100.00
10097;BME280;5087;42.662;23.466;2023-12-29T09:24:33;95990.28;;;3.34;100.00
10097;BME280;5087;42.662;23.466;2023-12-29T09:27:01;96003.47;;;3.36;100.00
10097;BME280;5087;42.662;23.466;2023-12-29T09:29:31;95996.78;;;2.61;100.00
10097;BME280;5087;42.662;23.466;2023-12-29T09:32:04;95980.78;;;2.44;100.00
10097;BME280;5087;42.662;23.466;2023-12-29T09:34:32;95991.69;;;2.60;100.00
10097;BME280;5087;42.662;23.466;2023-12-29T09:37:00;95991.47;;;2.89;100.00
10097;BME280;5087;42.662;23.466;2023-12-29T09:39:31;95977.66;;;3.62;100.00
10097;BME280;5087;42.662;23.466;2023-12-29T09:42:04;95972.63;;;3.06;100.00
10097;BME280;5087;42.662;23.466;2023-12-29T09:44:35;95990.53;;;3.00;100.00
10097;BME280;5087;42.662;23.466;2023-12-29T09:47:07;95961.59;;;3.02;100.00
10097;BME280;5087;42.662;23.466;2023-12-29T09:49:40;95978.66;;;2.96;100.00
10097;BME280;5087;42.662;23.466;2023-12-29T09:52:09;95945.63;;;3.17;100.00
10097;BME280;5087;42.662;23.466;2023-12-29T09:54:40;95945.25;;;3.41;100.00
10097;BME280;5087;42.662;23.466;2023-12-29T09:57:09;95938.41;;;3.56;100.00
10097;BME280;5087;42.662;23.466;2023-12-29T09:59:41;95955.22;;;3.78;100.00
10097;BME280;5087;42.662;23.466;2023-12-29T10:02:14;95926.63;;;4.10;100.00
10097;BME280;5087;42.662;23.466;2023-12-29T10:04:44;95937.16;;;4.17;100.00
10097;BME280;5087;42.662;23.466;2023-12-29T10:07:15;95943.53;;;4.10;100.00
10097;BME280;5087;42.662;23.466;2023-12-29T10:09:45;95908.94;;;4.19;100.00
10097;BME280;5087;42.662;23.466;2023-12-29T10:12:13;95912.25;;;3.84;100.00
10097;BME280;5087;42.662;23.466;2023-12-29T10:14:46;95919.66;;;3.66;100.00
10097;BME280;5087;42.662;23.466;2023-12-29T10:17:27;95918.66;;;3.77;100.00
10097;BME280;5087;42.662;23.466;2023-12-29T10:20:04;95907.88;;;4.20;100.00
10097;BME280;5087;42.662;23.466;2023-12-29T10:22:43;95900.66;;;4.31;100.00
10097;BME280;5087;42.662;23.466;2023-12-29T10:25:18;95916.56;;;4.53;100.00
10097;BME280;5087;42.662;23.466;2023-12-29T10:27:48;95900.16;;;4.44;100.00
10097;BME280;5087;42.662;23.466;2023-12-29T10:30:16;95887.13;;;4.10;100.00
10097;BME280;5087;42.662;23.466;2023-12-29T10:32:49;95871.59;;;4.28;100.00
10097;BME280;5087;42.662;23.466;2023-12-29T10:35:22;95892.19;;;4.86;100.00
10097;BME280;5087;42.662;23.466;2023-12-29T10:37:51;95880.88;;;5.10;100.00
10097;BME280;5087;42.662;23.466;2023-12-29T10:40:21;95872.25;;;4.77;100.00
10097;BME280;5087;42.662;23.466;2023-12-29T10:42:52;95891.13;;;5.23;100.00
10097;BME280;5087;42.662;23.466;2023-12-29T10:45:22;95862.97;;;6.01;100.00
10097;BME280;5087;42.662;23.466;2023-12-29T10:48:06;95860.63;;;5.74;100.00
10097;BME280;5087;42.662;23.466;2023-12-29T10:50:45;95840.91;;;5.84;100.00
10097;BME280;5087;42.662;23.466;2023-12-29T10:53:23;95844.09;;;5.96;100.00
10097;BME280;5087;42.662;23.466;2023-12-29T10:55:50;95838.56;;;6.38;100.00
10097;BME280;5087;42.662;23.466;2023-12-29T10:58:19;95830.25;;;6.74;100.00
10097;BME280;5087;42.662;23.466;2023-12-29T11:00:47;95845.88;;;6.77;100.00
10097;BME280;5087;42.662;23.466;2023-12-29T11:03:16;95827.09;;;6.56;100.00
10097;BME280;5087;42.662;23.466;2023-12-29T11:05:44;95824.75;;;6.49;100.00
10097;BME280;5087;42.662;23.466;2023-12-29T11:08:16;95837.78;;;6.77;100.00
10097;BME280;5087;42.662;23.466;2023-12-29T11:10:45;95827.13;;;6.96;100.00
10097;BME280;5087;42.662;23.466;2023-12-29T11:13:13;95830.25;;;7.08;100.00
10097;BME280;5087;42.662;23.466;2023-12-29T11:15:42;95791.75;;;6.97;100.00
10097;BME280;5087;42.662;23.466;2023-12-29T11:18:13;95806.13;;;7.17;100.00
10097;BME280;5087;42.662;23.466;2023-12-29T11:20:45;95786.66;;;6.56;100.00
10097;BME280;5087;42.662;23.466;2023-12-29T11:23:16;95791.66;;;6.73;100.00
10097;BME280;5087;42.662;23.466;2023-12-29T11:25:45;95796.41;;;6.52;100.00
10097;BME280;5087;42.662;23.466;2023-12-29T11:28:16;95801.63;;;6.73;100.00
10097;BME280;5087;42.662;23.466;2023-12-29T11:30:44;95781.50;;;6.94;100.00
10097;BME280;5087;42.662;23.466;2023-12-29T11:33:17;95745.84;;;6.97;100.00
10097;BME280;5087;42.662;23.466;2023-12-29T11:35:54;95801.03;;;7.45;100.00
10097;BME280;5087;42.662;23.466;2023-12-29T11:38:45;95777.91;;;7.34;100.00
10097;BME280;5087;42.662;23.466;2023-12-29T11:41:21;95785.94;;;7.87;100.00
10097;BME280;5087;42.662;23.466;2023-12-29T11:43:58;95782.09;;;8.13;100.00
10097;BME280;5087;42.662;23.466;2023-12-29T11:46:33;95750.66;;;7.79;100.00
10097;BME280;5087;42.662;23.466;2023-12-29T11:49:01;95766.19;;;8.30;100.00
10097;BME280;5087;42.662;23.466;2023-12-29T11:51:39;95757.34;;;8.63;100.00
10097;BME280;5087;42.662;23.466;2023-12-29T11:54:06;95744.69;;;8.77;100.00
10097;BME280;5087;42.662;23.466;2023-12-29T11:56:37;95748.44;;;9.42;100.00
10097;BME280;5087;42.662;23.466;2023-12-29T11:59:13;95765.22;;;9.72;100.00
10097;BME280;5087;42.662;23.466;2023-12-29T12:01:40;95732.56;;;9.91;100.00
10097;BME280;5087;42.662;23.466;2023-12-29T12:04:34;95742.06;;;9.05;100.00
10097;BME280;5087;42.662;23.466;2023-12-29T12:07:07;95741.47;;;8.75;100.00
10097;BME280;5087;42.662;23.466;2023-12-29T12:09:35;95758.63;;;8.51;100.00
10097;BME280;5087;42.662;23.466;2023-12-29T12:12:05;95763.03;;;8.80;100.00
10097;BME280;5087;42.662;23.466;2023-12-29T12:14:47;95761.75;;;9.25;100.00
10097;BME280;5087;42.662;23.466;2023-12-29T12:17:27;95756.97;;;9.49;100.00
10097;BME280;5087;42.662;23.466;2023-12-29T12:19:57;95723.53;;;9.82;100.00
10097;BME280;5087;42.662;23.466;2023-12-29T12:22:29;95739.06;;;10.04;100.00
10097;BME280;5087;42.662;23.466;2023-12-29T12:24:58;95684.25;;;9.79;100.00
10097;BME280;5087;42.662;23.466;2023-12-29T12:27:26;95712.97;;;9.25;100.00
10097;BME280;5087;42.662;23.466;2023-12-29T12:29:59;95734.38;;;9.54;100.00
10097;BME280;5087;42.662;23.466;2023-12-29T12:32:28;95749.16;;;9.48;100.00
10097;BME280;5087;42.662;23.466;2023-12-29T12:34:58;95747.44;;;10.44;100.00
10097;BME280;5087;42.662;23.466;2023-12-29T12:37:29;95726.44;;;10.36;100.00
10097;BME280;5087;42.662;23.466;2023-12-29T12:39:57;95737.91;;;9.82;100.00
10097;BME280;5087;42.662;23.466;2023-12-29T12:42:25;95762.41;;;9.63;100.00
10097;BME280;5087;42.662;23.466;2023-12-29T12:44:55;95750.53;;;10.52;100.00
10097;BME280;5087;42.662;23.466;2023-12-29T12:47:27;95708.03;;;10.47;100.00
10097;BME280;5087;42.662;23.466;2023-12-29T12:49:59;95741.13;;;11.26;100.00
10097;BME280;5087;42.662;23.466;2023-12-29T12:52:35;95732.91;;;11.89;100.00
10097;BME280;5087;42.662;23.466;2023-12-29T12:55:13;95706.97;;;11.83;100.00
10097;BME280;5087;42.662;23.466;2023-12-29T12:57:49;95736.81;;;12.23;100.00
10097;BME280;5087;42.662;23.466;2023-12-29T13:00:24;95683.75;;;11.85;100.00
10097;BME280;5087;42.662;23.466;2023-12-29T13:02:52;95746.94;;;12.75;100.00
10097;BME280;5087;42.662;23.466;2023-12-29T13:05:23;95692.16;;;12.07;100.00
10097;BME280;5087;42.662;23.466;2023-12-29T13:07:55;95726.63;;;11.39;100.00
10097;BME280;5087;42.662;23.466;2023-12-29T13:10:22;95734.53;;;11.50;100.00